Terminal Aerodrome Forecast
Issued by NWS

Home | Current Version | Previous Version | Text Only | Print | Product List | Glossary On
Versions: 1 2 3 4 5 6 7 8 9 10 11 12 13 14 15 16 17 18 19 20 21 22
000
FTUS44 KHGX 192327
TAFCXO
TAF
KCXO 192327Z 2000/2024 11005KT P6SM FEW050
     FM200800 VRB03KT 4SM BR OVC007
      TEMPO 2011/2014 1SM BR OVC002
     FM201600 18009KT P6SM SCT008 BKN015
     FM201900 18010KT P6SM VCSH SCT025 BKN040=

USA.gov is the U.S. government's official web portal to all federal, state and local government web resources and services.